Time;durP1;ratioP1;P1;durP2;ratioP2;P2;SDS_P1;SDS_P2;PMS_P1;PMS_P2;Temp;Humidity;BMP_temperature;BMP_pressure;BME280_temperature;BME280_humidity;BME280_pressure;Samples;Min_cycle;Max_cycle;Signal;HPM_P1;HPM_P2
2022/05/10 00:02:25;;;;;;;3.58;2.60;;;23.60;40.30;;;;;;5137075;28;20008;-38
2022/05/10 00:04:51;;;;;;;4.15;2.80;;;23.60;40.40;;;;;;5136224;28;20041;-38
2022/05/10 00:07:17;;;;;;;3.97;2.60;;;23.60;40.40;;;;;;5137615;28;20074;-38
2022/05/10 00:09:43;;;;;;;3.95;2.80;;;23.50;40.40;;;;;;5138060;27;20017;-38
2022/05/10 00:12:10;;;;;;;4.65;2.60;;;23.50;40.30;;;;;;5138460;28;20068;-37
2022/05/10 00:14:37;;;;;;;4.95;2.70;;;23.50;40.30;;;;;;5138107;28;20015;-38
2022/05/10 00:17:03;;;;;;;4.22;2.35;;;23.50;40.40;;;;;;5137864;27;20027;-38
2022/05/10 00:19:30;;;;;;;6.88;3.30;;;23.50;40.40;;;;;;5137223;28;20046;-38
2022/05/10 00:21:57;;;;;;;5.70;2.90;;;23.50;40.40;;;;;;5138176;27;20108;-40
2022/05/10 00:24:23;;;;;;;3.80;2.53;;;23.50;40.40;;;;;;5119900;28;20064;-38
2022/05/10 00:26:48;;;;;;;5.30;2.70;;;23.50;40.40;;;;;;5137997;28;20011;-41
2022/05/10 00:29:14;;;;;;;4.40;2.85;;;23.50;40.40;;;;;;5138696;28;20008;-38
2022/05/10 00:31:40;;;;;;;3.20;2.72;;;23.50;40.40;;;;;;5135964;27;20052;-39
2022/05/10 00:34:06;;;;;;;5.80;2.72;;;23.50;40.40;;;;;;5140813;27;20012;-38
2022/05/10 00:36:32;;;;;;;3.22;2.40;;;23.50;40.40;;;;;;5123201;27;20435;-42
2022/05/10 00:38:57;;;;;;;3.10;2.40;;;23.50;40.40;;;;;;5123545;27;20542;-38
2022/05/10 00:41:28;;;;;;;4.28;2.80;;;23.50;40.40;;;;;;5141110;27;20023;-39
2022/05/10 00:44:04;;;;;;;4.40;2.60;;;23.50;40.40;;;;;;5140740;27;20068;-38
2022/05/10 00:46:33;;;;;;;4.40;2.80;;;23.50;40.40;;;;;;5124823;27;20015;-38
2022/05/10 00:49:10;;;;;;;3.60;2.60;;;23.50;40.40;;;;;;5123025;27;20031;-39
2022/05/10 00:52:02;;;;;;;4.93;2.90;;;23.50;40.40;;;;;;5140129;27;20466;-38
2022/05/10 00:54:41;;;;;;;3.83;2.55;;;23.40;40.90;;;;;;5139440;27;20469;-38
2022/05/10 00:57:13;;;;;;;4.47;3.05;;;23.50;40.40;;;;;;5141363;27;20350;-40
2022/05/10 00:59:53;;;;;;;4.70;3.03;;;23.40;40.40;;;;;;5140687;27;20038;-38
2022/05/10 01:02:28;;;;;;;;;;;23.40;40.40;;;;;;5123709;27;20015;-38
2022/05/10 01:04:55;;;;;;;4.55;2.80;;;23.50;40.40;;;;;;5140092;27;20481;-39
2022/05/10 01:07:25;;;;;;;4.13;2.70;;;23.40;40.40;;;;;;5123508;27;20057;-39
2022/05/10 01:09:54;;;;;;;4.53;2.70;;;23.40;40.40;;;;;;5142763;27;20011;-37
2022/05/10 01:12:40;;;;;;;4.18;2.88;;;23.40;40.40;;;;;;5139685;27;20003;-38
2022/05/10 01:15:09;;;;;;;4.53;2.50;;;23.40;40.40;;;;;;5139638;27;20011;-38
2022/05/10 01:17:35;;;;;;;3.58;2.50;;;23.40;40.40;;;;;;5122528;27;20362;-39
2022/05/10 01:20:03;;;;;;;4.20;2.83;;;23.40;40.40;;;;;;5140015;27;20051;-38
2022/05/10 01:22:47;;;;;;;3.60;2.67;;;23.40;40.40;;;;;;5140420;27;20092;-38
2022/05/10 01:25:36;;;;;;;4.88;3.10;;;23.40;40.40;;;;;;5140346;27;20015;-37
2022/05/10 01:28:02;;;;;;;;;;;23.40;40.40;;;;;;5139229;27;20067;-38
2022/05/10 01:30:29;;;;;;;5.10;2.80;;;23.40;40.40;;;;;;5140253;27;19903;-39
2022/05/10 01:35:52;;;;;;;4.95;2.90;;;23.40;40.40;;;;;;5140719;27;20546;-36
2022/05/10 01:38:27;;;;;;;4.97;2.90;;;23.30;40.40;;;;;;5138718;27;20469;-38
2022/05/10 01:40:55;;;;;;;4.13;2.58;;;23.30;40.40;;;;;;5139748;27;20019;-36
2022/05/10 01:43:33;;;;;;;5.35;2.97;;;23.30;40.90;;;;;;5139712;27;20015;-39
2022/05/10 01:46:40;;;;;;;4.80;2.80;;;23.30;40.40;;;;;;5140539;27;20026;-37
2022/05/10 01:49:34;;;;;;;4.82;2.85;;;23.30;40.40;;;;;;5139167;27;20023;-36
2022/05/10 01:52:29;;;;;;;6.50;2.95;;;23.30;40.40;;;;;;5138210;27;20027;-36
2022/05/10 01:55:21;;;;;;;5.05;2.90;;;23.30;40.40;;;;;;5109940;27;20485;-38
2022/05/10 01:57:47;;;;;;;3.95;2.67;;;23.30;40.40;;;;;;5138354;27;20385;-36
2022/05/10 02:00:13;;;;;;;4.70;2.80;;;23.30;40.40;;;;;;5120064;27;20529;-37
2022/05/10 02:03:06;;;;;;;4.75;2.80;;;23.30;40.40;;;;;;5138099;27;20019;-38
2022/05/10 02:05:41;;;;;;;5.32;2.90;;;23.30;40.40;;;;;;5062037;28;20516;-37
2022/05/10 02:08:16;;;;;;;4.05;2.78;;;23.30;40.40;;;;;;5075813;28;20056;-36
2022/05/10 02:10:43;;;;;;;5.78;2.90;;;23.30;40.40;;;;;;5060076;28;20032;-37
2022/05/10 02:13:14;;;;;;;4.25;2.67;;;23.30;40.40;;;;;;5059362;28;20013;-37
2022/05/10 02:15:43;;;;;;;5.25;2.78;;;23.30;40.40;;;;;;5059586;28;20111;-40
2022/05/10 02:18:33;;;;;;;3.58;2.80;;;23.30;40.40;;;;;;5074884;28;20031;-36
2022/05/10 02:21:10;;;;;;;4.82;3.05;;;23.30;40.40;;;;;;5074255;28;20526;-39
2022/05/10 02:23:47;;;;;;;4.07;2.75;;;23.30;40.40;;;;;;5074763;28;20625;-38
2022/05/10 02:26:21;;;;;;;5.60;3.15;;;23.30;40.40;;;;;;5074050;28;20021;-37
2022/05/10 02:28:59;;;;;;;4.70;2.72;;;23.30;40.40;;;;;;5058509;28;20040;-37
2022/05/10 02:34:37;;;;;;;4.65;3.00;;;23.30;40.40;;;;;;5077239;28;20139;-39
2022/05/10 02:37:04;;;;;;;4.97;2.92;;;23.30;40.40;;;;;;5060781;28;20024;-38
2022/05/10 02:39:30;;;;;;;4.80;2.83;;;23.30;40.40;;;;;;5076872;28;20043;-39
2022/05/10 02:41:55;;;;;;;5.38;2.95;;;23.20;40.40;;;;;;5084216;27;20031;-39
2022/05/10 02:44:22;;;;;;;4.10;2.70;;;23.30;40.40;;;;;;5139418;27;20011;-39
2022/05/10 02:46:48;;;;;;;4.90;2.75;;;23.30;40.40;;;;;;5139123;27;20071;-38
2022/05/10 02:49:17;;;;;;;4.85;3.22;;;23.30;40.40;;;;;;5141373;27;20035;-39
2022/05/10 02:51:43;;;;;;;5.95;3.00;;;23.20;40.30;;;;;;5141704;27;20018;-38
2022/05/10 02:54:09;;;;;;;4.35;2.97;;;23.30;40.40;;;;;;5141751;27;20098;-39
2022/05/10 02:56:35;;;;;;;4.18;2.80;;;23.20;40.30;;;;;;5140376;27;20481;-38
2022/05/10 02:59:01;;;;;;;5.53;3.03;;;23.30;40.40;;;;;;5105892;27;20072;-37
2022/05/10 03:01:46;;;;;;;4.85;2.90;;;23.20;40.40;;;;;;5141021;27;20019;-37
2022/05/10 03:04:12;;;;;;;3.20;2.58;;;23.20;40.40;;;;;;5139999;27;20030;-37
2022/05/10 03:06:39;;;;;;;4.68;2.85;;;23.30;40.40;;;;;;5141013;27;20019;-38
2022/05/10 03:09:05;;;;;;;4.95;2.80;;;23.20;40.40;;;;;;5140385;27;20015;-37
2022/05/10 03:11:31;;;;;;;3.15;2.53;;;23.20;40.40;;;;;;5139650;27;20027;-36
2022/05/10 03:13:58;;;;;;;4.72;2.80;;;23.20;40.40;;;;;;5140623;27;20016;-38
2022/05/10 03:16:24;;;;;;;4.38;2.80;;;23.20;40.40;;;;;;5141538;27;20018;-37
2022/05/10 03:18:51;;;;;;;4.53;2.95;;;23.20;40.40;;;;;;5142246;27;20094;-37
2022/05/10 03:21:18;;;;;;;5.05;3.13;;;23.20;40.40;;;;;;5140057;27;20110;-37
2022/05/10 03:23:44;;;;;;;7.20;3.17;;;23.20;40.40;;;;;;5139681;27;20058;-36
2022/05/10 03:26:11;;;;;;;3.85;2.58;;;23.20;40.40;;;;;;5138898;27;20015;-39
2022/05/10 03:28:38;;;;;;;3.75;2.70;;;23.20;40.40;;;;;;5138160;27;20027;-38
2022/05/10 03:31:05;;;;;;;4.15;2.90;;;23.20;40.40;;;;;;5139382;27;20057;-38
2022/05/10 03:33:31;;;;;;;4.28;2.90;;;23.20;40.40;;;;;;5139366;27;20042;-37
2022/05/10 03:35:57;;;;;;;4.20;2.80;;;23.20;40.90;;;;;;5139674;27;20533;-39
2022/05/10 03:38:23;;;;;;;4.40;2.80;;;23.20;40.40;;;;;;5138567;28;20024;-37
2022/05/10 03:40:49;;;;;;;7.95;2.83;;;23.20;40.40;;;;;;5139026;28;20090;-37
2022/05/10 03:43:15;;;;;;;4.72;2.75;;;23.20;40.50;;;;;;5138348;28;20071;-36
2022/05/10 03:45:41;;;;;;;3.88;2.95;;;23.20;40.50;;;;;;5119779;28;20019;-38
2022/05/10 03:48:07;;;;;;;4.35;2.88;;;23.20;40.50;;;;;;5138873;28;20023;-37
2022/05/10 03:50:33;;;;;;;4.68;2.97;;;23.10;41.00;;;;;;5138290;28;20016;-37
2022/05/10 03:52:59;;;;;;;5.03;2.83;;;23.20;40.50;;;;;;5139777;28;20401;-37
2022/05/10 03:55:25;;;;;;;3.72;2.75;;;23.20;40.50;;;;;;5140222;28;20011;-36
2022/05/10 03:57:52;;;;;;;5.22;2.72;;;23.10;40.40;;;;;;5139493;27;20014;-37
2022/05/10 04:00:21;;;;;;;4.22;2.90;;;23.10;40.40;;;;;;5138417;27;20118;-37
2022/05/10 04:02:46;;;;;;;4.30;2.85;;;23.20;40.50;;;;;;5137614;28;20019;-37
2022/05/10 04:05:13;;;;;;;5.18;2.88;;;23.10;40.50;;;;;;5139503;27;20030;-36
2022/05/10 04:07:40;;;;;;;4.38;2.80;;;23.20;40.50;;;;;;5140383;27;20023;-36
2022/05/10 04:10:08;;;;;;;5.90;3.05;;;23.10;40.50;;;;;;5144688;27;20019;-38
2022/05/10 04:12:35;;;;;;;4.65;2.78;;;23.20;40.50;;;;;;5144129;27;20057;-39
2022/05/10 04:15:01;;;;;;;4.65;2.58;;;23.10;40.50;;;;;;5142900;27;20007;-37
2022/05/10 04:17:28;;;;;;;3.95;2.78;;;23.20;40.50;;;;;;5142979;27;20020;-38
2022/05/10 04:19:54;;;;;;;6.07;3.03;;;23.10;40.50;;;;;;5143164;27;20034;-39
2022/05/10 04:22:20;;;;;;;5.78;2.97;;;23.10;40.50;;;;;;5143048;27;20499;-38
2022/05/10 04:24:46;;;;;;;4.85;3.00;;;23.10;40.50;;;;;;5143595;27;20019;-39
2022/05/10 04:27:12;;;;;;;4.35;2.60;;;23.10;40.50;;;;;;5142389;27;21952;-38
2022/05/10 04:29:39;;;;;;;4.68;2.75;;;23.10;40.60;;;;;;5143063;27;20457;-40
2022/05/10 04:32:05;;;;;;;3.45;2.78;;;23.10;40.50;;;;;;5139221;27;20004;-37
2022/05/10 04:34:31;;;;;;;4.75;2.60;;;23.10;40.60;;;;;;5141510;27;20008;-38
2022/05/10 04:36:57;;;;;;;4.40;2.67;;;23.10;40.60;;;;;;5141283;27;20041;-39
2022/05/10 04:39:23;;;;;;;5.70;3.00;;;23.10;40.60;;;;;;5142022;27;20016;-39
2022/05/10 04:41:51;;;;;;;4.95;2.72;;;23.10;40.60;;;;;;5141158;27;20027;-38
2022/05/10 04:44:17;;;;;;;4.68;2.90;;;23.10;40.60;;;;;;5139766;27;20014;-40
2022/05/10 04:46:43;;;;;;;4.53;3.00;;;23.10;40.60;;;;;;5140766;27;20019;-38
2022/05/10 04:49:13;;;;;;;4.43;2.95;;;23.10;40.60;;;;;;5141430;27;20030;-38
2022/05/10 04:51:39;;;;;;;4.60;2.83;;;23.10;40.60;;;;;;5141200;27;20030;-39
2022/05/10 04:54:05;;;;;;;4.97;3.30;;;23.20;40.60;;;;;;5140241;27;20373;-42
2022/05/10 04:56:31;;;;;;;4.97;2.50;;;23.10;40.60;;;;;;5140035;27;20461;-38
2022/05/10 04:58:58;;;;;;;3.90;2.90;;;23.10;40.60;;;;;;5140110;27;20035;-37
2022/05/10 05:01:26;;;;;;;5.18;2.80;;;23.20;40.60;;;;;;5140221;27;20015;-37
2022/05/10 05:03:55;;;;;;;4.13;2.80;;;23.10;40.60;;;;;;5140551;27;20015;-37
2022/05/10 05:06:22;;;;;;;5.32;3.72;;;23.20;40.60;;;;;;5140178;27;20019;-39
2022/05/10 05:08:47;;;;;;;3.33;3.00;;;23.20;40.50;;;;;;5139906;27;20063;-38
2022/05/10 05:11:13;;;;;;;4.68;3.05;;;23.20;40.60;;;;;;5139445;27;20098;-38
2022/05/10 05:13:39;;;;;;;4.78;2.90;;;23.20;40.60;;;;;;5138871;27;20023;-40
2022/05/10 05:16:06;;;;;;;4.47;2.80;;;23.20;40.50;;;;;;5139665;27;20094;-38
2022/05/10 05:18:32;;;;;;;6.80;2.90;;;23.20;40.50;;;;;;5138964;27;20043;-38
2022/05/10 05:20:58;;;;;;;4.93;2.83;;;23.20;40.50;;;;;;5121920;27;20047;-39
2022/05/10 05:23:24;;;;;;;3.70;2.58;;;23.20;40.50;;;;;;5137829;27;20144;-38
2022/05/10 05:25:52;;;;;;;4.07;3.00;;;23.20;40.50;;;;;;5139051;27;20065;-40
2022/05/10 05:28:18;;;;;;;4.95;2.85;;;23.20;40.60;;;;;;5139960;27;20115;-39
2022/05/10 05:30:44;;;;;;;4.40;2.80;;;23.20;40.50;;;;;;5138300;27;20018;-38
2022/05/10 05:33:11;;;;;;;3.53;2.88;;;23.20;40.60;;;;;;5136449;27;20090;-37
2022/05/10 05:35:37;;;;;;;4.38;3.10;;;23.20;40.60;;;;;;5138814;27;20094;-39
2022/05/10 05:38:03;;;;;;;3.70;2.97;;;23.20;40.60;;;;;;5138244;27;20043;-38
2022/05/10 05:40:29;;;;;;;3.80;2.75;;;23.20;40.60;;;;;;5136938;27;20046;-37
2022/05/10 05:42:55;;;;;;;3.35;2.70;;;23.20;40.60;;;;;;5137046;27;20012;-41
2022/05/10 05:45:22;;;;;;;3.50;2.67;;;23.20;40.60;;;;;;5136584;27;20012;-37
2022/05/10 05:47:49;;;;;;;3.50;2.92;;;23.20;40.50;;;;;;5137473;27;20019;-37
2022/05/10 05:50:16;;;;;;;3.38;2.90;;;23.20;40.50;;;;;;5136420;27;20072;-37
2022/05/10 05:52:42;;;;;;;3.88;2.90;;;23.30;40.50;;;;;;5134231;27;20011;-37
2022/05/10 05:55:09;;;;;;;3.90;2.60;;;23.30;40.50;;;;;;5132456;27;20564;-37
2022/05/10 05:57:37;;;;;;;3.25;2.72;;;23.30;40.50;;;;;;5134067;27;20066;-37
2022/05/10 06:00:05;;;;;;;3.25;2.75;;;23.30;40.50;;;;;;5134929;27;20064;-38
2022/05/10 06:02:31;;;;;;;3.40;3.05;;;23.30;40.50;;;;;;5135599;27;20071;-37
2022/05/10 06:04:58;;;;;;;4.55;3.10;;;23.30;40.40;;;;;;5136989;27;20043;-38
2022/05/10 06:07:23;;;;;;;3.55;2.78;;;23.30;40.40;;;;;;5117398;27;20027;-37
2022/05/10 06:09:50;;;;;;;3.28;2.78;;;23.30;40.40;;;;;;5134594;27;20011;-37
2022/05/10 06:12:18;;;;;;;3.65;3.33;;;23.30;40.50;;;;;;5134806;27;20008;-37
2022/05/10 06:14:44;;;;;;;3.70;3.10;;;23.30;40.50;;;;;;5134349;27;20349;-37
2022/05/10 06:17:11;;;;;;;3.90;2.83;;;23.30;40.50;;;;;;5134175;27;20065;-38
2022/05/10 06:19:38;;;;;;;3.80;2.85;;;23.30;40.50;;;;;;5135141;27;20042;-38
2022/05/10 06:22:04;;;;;;;5.05;3.22;;;23.30;40.60;;;;;;5131811;27;20031;-37
2022/05/10 06:24:30;;;;;;;4.47;2.90;;;23.40;40.80;;;;;;5132370;27;20015;-37
2022/05/10 06:26:56;;;;;;;5.20;3.40;;;23.40;41.10;;;;;;5134115;27;20014;-36
2022/05/10 06:29:22;;;;;;;11.18;3.53;;;23.40;41.40;;;;;;5134399;27;20023;-37
2022/05/10 06:31:48;;;;;;;8.07;3.50;;;23.50;42.20;;;;;;5134105;27;20011;-37
2022/05/10 06:34:14;;;;;;;5.07;3.50;;;23.60;43.10;;;;;;5132788;27;20110;-36
2022/05/10 06:36:41;;;;;;;9.65;3.97;;;23.60;43.00;;;;;;5134403;27;20015;-37
2022/05/10 06:39:07;;;;;;;5.07;3.55;;;23.70;43.00;;;;;;5134649;27;20056;-36
2022/05/10 06:41:33;;;;;;;7.55;3.67;;;23.80;43.10;;;;;;5134619;27;20218;-37
2022/05/10 06:43:59;;;;;;;7.95;3.80;;;23.80;43.10;;;;;;5134457;27;20088;-37
2022/05/10 06:46:26;;;;;;;9.82;3.90;;;23.90;43.00;;;;;;5134264;27;20011;-37
2022/05/10 06:48:52;;;;;;;14.55;4.22;;;24.00;43.20;;;;;;5134032;27;20035;-38
2022/05/10 06:51:21;;;;;;;6.07;3.63;;;24.00;43.10;;;;;;5133978;27;20384;-37
2022/05/10 06:53:47;;;;;;;10.23;3.67;;;24.00;42.90;;;;;;5133148;27;20015;-38
2022/05/10 06:56:14;;;;;;;7.40;4.10;;;24.10;43.10;;;;;;5132943;27;20426;-37
2022/05/10 06:58:40;;;;;;;10.52;3.78;;;24.10;43.10;;;;;;5133967;27;20015;-37
2022/05/10 07:01:13;;;;;;;8.90;3.80;;;24.10;43.40;;;;;;5133871;27;20019;-36
2022/05/10 07:03:41;;;;;;;6.90;3.90;;;24.10;43.40;;;;;;5134540;27;20019;-37
2022/05/10 07:06:07;;;;;;;8.43;3.72;;;24.10;43.50;;;;;;5134111;27;20025;-37
2022/05/10 07:08:33;;;;;;;6.25;3.60;;;24.20;43.70;;;;;;5133465;27;20099;-36
2022/05/10 07:10:59;;;;;;;7.05;4.10;;;24.20;43.60;;;;;;5133019;27;20463;-36
2022/05/10 07:13:26;;;;;;;7.68;3.90;;;24.20;43.80;;;;;;5131764;27;20055;-36
2022/05/10 07:15:54;;;;;;;7.70;4.40;;;24.20;43.70;;;;;;5133164;27;20026;-36
2022/05/10 07:18:20;;;;;;;12.07;3.95;;;24.20;43.80;;;;;;5132959;27;20050;-38
2022/05/10 07:20:47;;;;;;;14.45;4.30;;;24.10;44.00;;;;;;5133846;27;20050;-37
2022/05/10 07:23:13;;;;;;;19.15;4.50;;;24.20;44.70;;;;;;5133432;27;20071;-37
2022/05/10 07:25:39;;;;;;;23.20;4.50;;;24.20;44.90;;;;;;5132179;27;20024;-37
2022/05/10 07:28:08;;;;;;;17.10;4.60;;;24.30;45.40;;;;;;5132531;27;20032;-37
2022/05/10 07:30:34;;;;;;;16.30;4.40;;;24.40;45.80;;;;;;5133983;27;20030;-37
2022/05/10 07:33:00;;;;;;;13.98;4.30;;;24.40;45.80;;;;;;5133599;27;20023;-36
2022/05/10 07:38:13;;;;;;;15.13;4.70;;;24.60;46.00;;;;;;5132071;28;20034;-37
2022/05/10 07:40:39;;;;;;;14.93;4.70;;;24.60;46.10;;;;;;5133081;27;20015;-37
2022/05/10 07:43:06;;;;;;;18.63;4.85;;;24.70;46.30;;;;;;5132742;27;20111;-37
2022/05/10 07:45:32;;;;;;;16.20;4.53;;;24.70;46.30;;;;;;5132152;28;20031;-37
2022/05/10 07:47:57;;;;;;;15.77;4.43;;;24.80;46.40;;;;;;5131772;28;20031;-37
2022/05/10 07:50:23;;;;;;;13.98;4.50;;;24.80;46.70;;;;;;5131956;28;20016;-37
2022/05/10 07:52:49;;;;;;;19.02;4.90;;;24.80;46.60;;;;;;5132997;28;20015;-37
2022/05/10 07:55:15;;;;;;;12.02;4.53;;;24.80;46.70;;;;;;5131650;28;20042;-37
2022/05/10 07:57:44;;;;;;;16.50;4.40;;;24.90;47.00;;;;;;5133046;28;20039;-37
2022/05/10 08:00:12;;;;;;;19.35;4.38;;;24.90;47.00;;;;;;5132014;28;20043;-37
2022/05/10 08:02:43;;;;;;;19.50;4.57;;;25.00;47.10;;;;;;5132075;27;20015;-37
2022/05/10 08:05:19;;;;;;;19.15;4.18;;;25.00;47.20;;;;;;5131625;28;20037;-37
2022/05/10 08:07:45;;;;;;;15.50;4.80;;;24.90;47.30;;;;;;5133211;27;20050;-41
2022/05/10 08:10:13;;;;;;;14.30;5.05;;;24.90;47.50;;;;;;5132439;28;20397;-38
2022/05/10 08:12:39;;;;;;;12.30;4.57;;;24.80;47.60;;;;;;5132656;27;20413;-37
2022/05/10 08:15:06;;;;;;;11.38;4.60;;;24.70;47.40;;;;;;5132687;28;20095;-36
2022/05/10 08:17:31;;;;;;;13.27;4.65;;;24.60;47.60;;;;;;5132389;27;20049;-37
2022/05/10 08:19:58;;;;;;;10.40;4.60;;;24.60;47.40;;;;;;5133123;28;20469;-37
2022/05/10 08:22:23;;;;;;;9.43;4.57;;;24.60;47.40;;;;;;5132773;28;20051;-37
2022/05/10 08:24:49;;;;;;;14.82;4.70;;;24.60;47.40;;;;;;5133203;28;20477;-37
2022/05/10 08:27:15;;;;;;;15.32;4.35;;;24.60;47.40;;;;;;5133713;28;20015;-37
2022/05/10 08:29:41;;;;;;;12.75;4.07;;;24.60;47.10;;;;;;5133263;28;20028;-37
2022/05/10 08:32:08;;;;;;;17.17;4.40;;;24.70;47.10;;;;;;5133403;28;20113;-37
2022/05/10 08:34:35;;;;;;;13.10;3.92;;;24.70;46.90;;;;;;5133151;27;20469;-37
2022/05/10 08:37:04;;;;;;;14.15;4.45;;;24.80;46.70;;;;;;5131753;28;20028;-37
2022/05/10 08:39:31;;;;;;;12.75;4.22;;;24.80;46.30;;;;;;5133001;27;20019;-37
2022/05/10 08:42:01;;;;;;;12.18;3.78;;;24.90;46.20;;;;;;5133190;28;20019;-37
2022/05/10 08:44:29;;;;;;;12.23;4.50;;;25.00;45.90;;;;;;5133062;27;20011;-38
2022/05/10 08:46:57;;;;;;;8.57;4.05;;;25.00;45.70;;;;;;5115105;28;20032;-37
2022/05/10 08:49:58;;;;;;;9.00;3.92;;;25.10;45.50;;;;;;5131895;28;20031;-37
2022/05/10 08:52:27;;;;;;;13.18;3.97;;;25.10;45.20;;;;;;5134275;27;20008;-36
2022/05/10 08:54:53;;;;;;;13.93;3.90;;;25.20;45.00;;;;;;5137076;27;20030;-35
2022/05/10 08:57:32;;;;;;;13.45;3.88;;;25.20;44.80;;;;;;5135656;27;20008;-35
2022/05/10 09:00:03;;;;;;;;;;;25.20;44.70;;;;;;5135803;27;20012;-35
2022/05/10 09:02:44;;;;;;;11.98;3.92;;;25.30;44.60;;;;;;5135736;27;19903;-38
2022/05/10 09:05:18;;;;;;;11.70;4.28;;;25.30;44.50;;;;;;5136734;27;20015;-37
2022/05/10 09:08:06;;;;;;;17.02;4.43;;;25.30;44.50;;;;;;5134438;27;20470;-37
2022/05/10 09:10:41;;;;;;;8.90;4.20;;;25.30;44.20;;;;;;5119235;27;20046;-38
2022/05/10 09:13:10;;;;;;;10.32;3.80;;;25.40;44.10;;;;;;5135453;27;20076;-37
2022/05/10 09:15:38;;;;;;;9.40;3.80;;;25.40;44.20;;;;;;5135992;27;20008;-38
2022/05/10 09:18:15;;;;;;;8.18;3.70;;;25.30;44.30;;;;;;5134747;27;20023;-38
2022/05/10 09:20:45;;;;;;;12.02;4.18;;;25.40;44.30;;;;;;5117714;27;20015;-38
2022/05/10 09:23:35;;;;;;;14.35;4.03;;;25.60;45.30;;;;;;5134822;27;20023;-37
2022/05/10 09:26:01;;;;;;;11.27;4.80;;;25.70;45.30;;;;;;5117242;27;20027;-36
2022/05/10 09:29:23;;;;;;;12.27;4.50;;;25.90;45.40;;;;;;5135941;27;20054;-37
2022/05/10 09:34:46;;;;;;;14.50;4.30;;;26.10;45.00;;;;;;5135732;27;20112;-37
2022/05/10 09:37:22;;;;;;;9.68;4.00;;;26.20;45.00;;;;;;5134903;27;20011;-37
2022/05/10 09:39:56;;;;;;;10.00;4.07;;;26.30;45.20;;;;;;5135828;27;20008;-37
2022/05/10 09:42:31;;;;;;;12.48;4.10;;;26.30;45.30;;;;;;5135511;27;20019;-37
2022/05/10 09:45:05;;;;;;;13.35;4.10;;;26.30;45.80;;;;;;5135766;27;20015;-37
2022/05/10 09:47:32;;;;;;;13.40;4.47;;;26.40;45.30;;;;;;5135403;27;20139;-36
2022/05/10 09:50:19;;;;;;;12.82;4.30;;;26.50;45.50;;;;;;5135524;27;20012;-38
2022/05/10 09:52:45;;;;;;;13.57;3.90;;;26.60;45.60;;;;;;5135283;27;20016;-37
2022/05/10 09:55:25;;;;;;;13.60;4.53;;;26.70;45.40;;;;;;5135030;27;20011;-37
2022/05/10 09:57:52;;;;;;;10.48;4.28;;;26.80;45.30;;;;;;5117468;27;20020;-37
2022/05/10 10:00:18;;;;;;;12.55;4.28;;;26.80;45.50;;;;;;5133733;27;20467;-37
2022/05/10 10:02:44;;;;;;;14.20;4.45;;;26.90;45.10;;;;;;5117532;27;20030;-36
2022/05/10 10:05:40;;;;;;;11.30;4.10;;;26.90;44.90;;;;;;5134070;27;20443;-38
2022/05/10 10:08:07;;;;;;;11.02;4.05;;;27.00;44.60;;;;;;5117275;27;20030;-39
2022/05/10 10:10:37;;;;;;;10.73;4.10;;;26.90;44.80;;;;;;5136143;27;20072;-38
2022/05/10 10:13:22;;;;;;;;;;;26.90;42.20;;;;;;5136553;27;20026;-37
2022/05/10 10:15:47;;;;;;;7.65;4.25;;;26.10;42.00;;;;;;5135766;27;20338;-37
2022/05/10 10:18:41;;;;;;;7.90;3.97;;;25.30;43.90;;;;;;5134950;27;20094;-36
2022/05/10 10:21:08;;;;;;;7.45;4.28;;;25.40;42.50;;;;;;5135253;27;20031;-38
2022/05/10 10:23:37;;;;;;;7.00;4.03;;;25.50;42.00;;;;;;5117851;27;20016;-40
2022/05/10 10:26:23;;;;;;;9.10;4.60;;;25.60;41.30;;;;;;5118281;27;20011;-38
2022/05/10 10:28:57;;;;;;;9.23;3.80;;;25.60;41.20;;;;;;5136059;27;20122;-38
2022/05/10 10:31:33;;;;;;;9.38;3.85;;;25.00;42.10;;;;;;5136432;27;20076;-38
2022/05/10 10:34:00;;;;;;;18.58;4.40;;;24.80;42.60;;;;;;5134481;27;20029;-37
2022/05/10 10:36:28;;;;;;;14.45;4.30;;;24.50;43.00;;;;;;5137048;27;20035;-39
2022/05/10 10:39:06;;;;;;;11.45;4.18;;;25.00;41.60;;;;;;5118412;27;20011;-39
2022/05/10 10:42:00;;;;;;;7.82;3.70;;;25.20;41.10;;;;;;5135358;27;20037;-38
2022/05/10 10:44:28;;;;;;;9.50;3.75;;;25.30;40.80;;;;;;5135635;27;20447;-39
2022/05/10 10:47:05;;;;;;;10.85;4.07;;;25.40;40.60;;;;;;5133318;27;20011;-38
2022/05/10 10:49:53;;;;;;;21.73;4.55;;;25.50;40.50;;;;;;5132849;27;20115;-38
2022/05/10 10:52:19;;;;;;;15.60;4.55;;;25.50;40.60;;;;;;5134250;27;20046;-38
2022/05/10 10:54:45;;;;;;;15.35;4.38;;;25.40;41.60;;;;;;5133905;27;20015;-38
2022/05/10 10:57:32;;;;;;;13.27;4.32;;;25.60;41.80;;;;;;5115678;27;20015;-38
2022/05/10 11:00:17;;;;;;;13.38;4.20;;;25.70;42.00;;;;;;5133980;27;20011;-39
2022/05/10 11:02:53;;;;;;;16.90;4.65;;;25.70;41.60;;;;;;5133539;27;20492;-38
2022/05/10 11:05:28;;;;;;;12.98;3.92;;;25.60;41.80;;;;;;5132196;27;20018;-38
2022/05/10 11:08:31;;;;;;;12.70;4.07;;;25.50;41.80;;;;;;5133808;27;20122;-38
2022/05/10 11:11:31;;;;;;;12.40;4.10;;;25.60;41.60;;;;;;5129103;27;20509;-40
2022/05/10 11:14:00;;;;;;;7.70;4.05;;;25.30;42.00;;;;;;5133421;27;20098;-38
2022/05/10 11:16:35;;;;;;;10.23;4.70;;;25.50;41.10;;;;;;5133642;27;20012;-38
2022/05/10 11:19:35;;;;;;;6.93;3.90;;;25.70;40.60;;;;;;5133483;27;20027;-38
2022/05/10 11:22:18;;;;;;;11.05;4.38;;;25.60;41.20;;;;;;5132971;27;20497;-38
2022/05/10 11:25:21;;;;;;;8.38;4.32;;;25.90;40.80;;;;;;5133784;27;20425;-46
2022/05/10 11:28:05;;;;;;;7.93;3.78;;;26.10;40.10;;;;;;5133829;27;20031;-37
2022/05/10 11:30:47;;;;;;;10.82;3.90;;;26.20;39.70;;;;;;5132033;27;20019;-38
2022/05/10 11:33:32;;;;;;;7.28;3.67;;;26.20;39.50;;;;;;5133052;27;20008;-37
2022/05/10 11:36:20;;;;;;;8.90;3.72;;;26.20;39.70;;;;;;5133199;27;20530;-37
2022/05/10 11:39:23;;;;;;;9.40;3.80;;;26.20;39.10;;;;;;5133359;27;20026;-37
2022/05/10 11:42:04;;;;;;;14.30;4.18;;;26.00;39.10;;;;;;5131769;28;20062;-37
2022/05/10 11:45:00;;;;;;;16.15;3.80;;;25.40;40.50;;;;;;5133561;27;20473;-37
2022/05/10 11:47:32;;;;;;;17.98;4.22;;;25.40;40.10;;;;;;5134024;28;20034;-38
2022/05/10 11:50:13;;;;;;;11.60;3.30;;;25.10;41.20;;;;;;5132571;28;20018;-37
2022/05/10 11:53:08;;;;;;;13.70;3.45;;;24.80;41.20;;;;;;5134129;28;20030;-43
2022/05/10 11:55:57;;;;;;;13.07;3.30;;;24.80;40.20;;;;;;5132526;28;20039;-37
2022/05/10 11:58:24;;;;;;;8.30;2.45;;;24.90;39.40;;;;;;5132783;28;20098;-37
2022/05/10 12:00:58;;;;;;;9.27;2.60;;;25.20;38.20;;;;;;5132379;28;20015;-37
2022/05/10 12:03:36;;;;;;;7.80;2.90;;;25.30;37.80;;;;;;5132637;28;20022;-37
2022/05/10 12:06:24;;;;;;;9.73;2.72;;;25.30;37.90;;;;;;5133514;27;20466;-36
2022/05/10 12:08:57;;;;;;;7.75;2.85;;;25.30;37.60;;;;;;5133330;28;20050;-36
2022/05/10 12:11:30;;;;;;;7.10;2.58;;;24.90;38.70;;;;;;5133471;27;20474;-36
2022/05/10 12:22:59;;;;;;;7.97;2.78;;;25.00;38.50;;;;;;5132816;28;20409;-37
2022/05/10 12:25:59;;;;;;;9.02;2.47;;;25.10;38.10;;;;;;5133306;27;20031;-37
2022/05/10 12:28:47;;;;;;;9.30;2.47;;;24.90;38.90;;;;;;5133516;27;20015;-36
2022/05/10 12:31:33;;;;;;;10.40;2.78;;;24.90;39.00;;;;;;5135515;27;20035;-37
2022/05/10 12:34:03;;;;;;;9.90;2.85;;;24.80;38.70;;;;;;5118687;27;20079;-36
2022/05/10 12:36:39;;;;;;;11.18;3.10;;;25.00;38.00;;;;;;5136292;27;20015;-36
2022/05/10 12:39:22;;;;;;;16.30;2.90;;;24.90;37.80;;;;;;5137866;27;20050;-36
2022/05/10 12:42:07;;;;;;;8.50;2.58;;;24.70;38.40;;;;;;5136250;27;20055;-36
2022/05/10 12:45:08;;;;;;;9.35;2.40;;;24.70;38.60;;;;;;5136158;27;20015;-37
2022/05/10 12:47:43;;;;;;;8.68;3.03;;;24.70;38.50;;;;;;5136147;27;20473;-38
2022/05/10 12:50:29;;;;;;;9.15;2.78;;;25.00;37.30;;;;;;5137938;27;20018;-39
2022/05/10 12:52:56;;;;;;;4.95;2.35;;;25.00;37.20;;;;;;5137518;27;20019;-37
2022/05/10 12:55:27;;;;;;;11.10;2.40;;;25.00;37.30;;;;;;5136961;27;20096;-36
2022/05/10 12:57:55;;;;;;;8.90;2.65;;;25.00;37.40;;;;;;5136306;27;20035;-37
2022/05/10 13:00:33;;;;;;;7.38;2.38;;;24.90;37.90;;;;;;5136589;27;20027;-37
2022/05/10 13:03:08;;;;;;;6.72;2.55;;;25.10;37.60;;;;;;5136960;27;20018;-36
2022/05/10 13:05:40;;;;;;;8.35;2.30;;;25.20;37.70;;;;;;5137089;27;20125;-37
2022/05/10 13:08:31;;;;;;;7.50;2.63;;;25.20;37.10;;;;;;5136041;27;20031;-37
2022/05/10 13:10:58;;;;;;;8.95;2.60;;;25.20;37.20;;;;;;5138095;27;20346;-38
2022/05/10 13:13:26;;;;;;;6.00;2.38;;;25.30;37.30;;;;;;5139268;27;20054;-42
2022/05/10 13:15:52;;;;;;;3.72;2.20;;;25.40;37.10;;;;;;5137635;27;20011;-37
2022/05/10 13:18:20;;;;;;;5.13;2.30;;;25.50;37.50;;;;;;5136799;27;20058;-37
2022/05/10 13:20:48;;;;;;;6.80;2.30;;;25.50;36.70;;;;;;5119824;27;20372;-37
2022/05/10 13:23:17;;;;;;;8.00;2.30;;;25.60;36.80;;;;;;5138012;27;20023;-36
2022/05/10 13:25:43;;;;;;;6.40;2.40;;;25.60;36.90;;;;;;5137685;27;20027;-37
2022/05/10 13:28:25;;;;;;;8.85;2.58;;;25.60;36.70;;;;;;5137903;27;20011;-37
2022/05/10 13:30:58;;;;;;;8.45;3.10;;;25.60;36.70;;;;;;5139345;27;20042;-37